sensor_id;sensor_type;location;lat;lon;timestamp;pressure;altitude;pressure_sealevel;temperature;humidity
46836;BME280;32573;51.290;6.926;2023-05-24T00:01:00;100926.41;;;10.36;100.00
46836;BME280;32573;51.290;6.926;2023-05-24T00:03:30;100928.84;;;10.32;100.00
46836;BME280;32573;51.290;6.926;2023-05-24T00:06:01;100931.34;;;10.29;100.00
46836;BME280;32573;51.290;6.926;2023-05-24T00:08:30;100926.91;;;10.28;100.00
46836;BME280;32573;51.290;6.926;2023-05-24T00:10:58;100925.00;;;10.24;100.00
46836;BME280;32573;51.290;6.926;2023-05-24T00:13:27;100931.88;;;10.22;100.00
46836;BME280;32573;51.290;6.926;2023-05-24T00:15:55;100930.91;;;10.20;100.00
46836;BME280;32573;51.290;6.926;2023-05-24T00:18:24;100929.84;;;10.14;100.00
46836;BME280;32573;51.290;6.926;2023-05-24T00:20:54;100929.72;;;10.11;100.00
46836;BME280;32573;51.290;6.926;2023-05-24T00:23:24;100926.00;;;10.06;100.00
46836;BME280;32573;51.290;6.926;2023-05-24T00:25:53;100924.19;;;10.05;100.00
46836;BME280;32573;51.290;6.926;2023-05-24T00:28:22;100924.09;;;10.02;100.00
46836;BME280;32573;51.290;6.926;2023-05-24T00:30:51;100921.34;;;9.99;100.00
46836;BME280;32573;51.290;6.926;2023-05-24T00:33:20;100926.50;;;9.98;100.00
46836;BME280;32573;51.290;6.926;2023-05-24T00:35:50;100918.44;;;9.93;100.00
46836;BME280;32573;51.290;6.926;2023-05-24T00:38:24;100919.28;;;9.92;100.00
46836;BME280;32573;51.290;6.926;2023-05-24T00:40:54;100916.56;;;9.89;100.00
46836;BME280;32573;51.290;6.926;2023-05-24T00:43:23;100919.16;;;9.89;100.00
46836;BME280;32573;51.290;6.926;2023-05-24T00:48:45;100922.47;;;9.85;100.00
46836;BME280;32573;51.290;6.926;2023-05-24T00:51:14;100923.16;;;9.81;100.00
46836;BME280;32573;51.290;6.926;2023-05-24T00:53:46;100924.84;;;9.79;100.00
46836;BME280;32573;51.290;6.926;2023-05-24T00:56:16;100915.91;;;9.74;100.00
46836;BME280;32573;51.290;6.926;2023-05-24T00:58:46;100917.47;;;9.70;100.00
46836;BME280;32573;51.290;6.926;2023-05-24T01:01:16;100910.38;;;9.67;100.00
46836;BME280;32573;51.290;6.926;2023-05-24T01:03:45;100903.22;;;9.63;100.00
46836;BME280;32573;51.290;6.926;2023-05-24T01:06:14;100910.06;;;9.60;100.00
46836;BME280;32573;51.290;6.926;2023-05-24T01:09:07;100903.72;;;9.55;100.00
46836;BME280;32573;51.290;6.926;2023-05-24T01:11:54;100906.13;;;9.50;100.00
46836;BME280;32573;51.290;6.926;2023-05-24T01:14:28;100907.66;;;9.45;100.00
46836;BME280;32573;51.290;6.926;2023-05-24T01:17:06;100903.09;;;9.41;100.00
46836;BME280;32573;51.290;6.926;2023-05-24T01:19:48;100904.69;;;9.37;100.00
46836;BME280;32573;51.290;6.926;2023-05-24T01:22:39;100901.88;;;9.33;100.00
46836;BME280;32573;51.290;6.926;2023-05-24T01:25:18;100911.22;;;9.27;100.00
46836;BME280;32573;51.290;6.926;2023-05-24T01:27:52;100906.69;;;9.23;100.00
46836;BME280;32573;51.290;6.926;2023-05-24T01:30:24;100901.31;;;9.20;100.00
46836;BME280;32573;51.290;6.926;2023-05-24T01:32:56;100905.44;;;9.15;100.00
46836;BME280;32573;51.290;6.926;2023-05-24T01:35:24;100898.31;;;9.11;100.00
46836;BME280;32573;51.290;6.926;2023-05-24T01:37:53;100901.53;;;9.05;100.00
46836;BME280;32573;51.290;6.926;2023-05-24T01:40:21;100895.28;;;9.02;100.00
46836;BME280;32573;51.290;6.926;2023-05-24T01:42:58;100897.75;;;8.99;100.00
46836;BME280;32573;51.290;6.926;2023-05-24T01:45:34;100889.72;;;8.94;100.00
46836;BME280;32573;51.290;6.926;2023-05-24T01:48:07;100887.84;;;8.92;100.00
46836;BME280;32573;51.290;6.926;2023-05-24T01:50:47;100884.88;;;8.84;100.00
46836;BME280;32573;51.290;6.926;2023-05-24T01:53:18;100882.06;;;8.79;100.00
46836;BME280;32573;51.290;6.926;2023-05-24T01:55:48;100883.56;;;8.74;100.00
46836;BME280;32573;51.290;6.926;2023-05-24T01:58:21;100888.47;;;8.68;100.00
46836;BME280;32573;51.290;6.926;2023-05-24T02:00:51;100891.84;;;8.66;100.00
46836;BME280;32573;51.290;6.926;2023-05-24T02:03:20;100891.59;;;8.61;100.00
46836;BME280;32573;51.290;6.926;2023-05-24T02:05:49;100891.59;;;8.61;100.00
46836;BME280;32573;51.290;6.926;2023-05-24T02:08:17;100888.06;;;8.59;100.00
46836;BME280;32573;51.290;6.926;2023-05-24T02:10:46;100884.38;;;8.55;100.00
46836;BME280;32573;51.290;6.926;2023-05-24T02:13:15;100876.28;;;8.49;100.00
46836;BME280;32573;51.290;6.926;2023-05-24T02:15:45;100880.41;;;8.44;100.00
46836;BME280;32573;51.290;6.926;2023-05-24T02:18:14;100881.84;;;8.39;100.00
46836;BME280;32573;51.290;6.926;2023-05-24T02:20:44;100879.81;;;8.33;100.00
46836;BME280;32573;51.290;6.926;2023-05-24T02:23:13;100879.53;;;8.27;100.00
46836;BME280;32573;51.290;6.926;2023-05-24T02:25:42;100882.81;;;8.23;100.00
46836;BME280;32573;51.290;6.926;2023-05-24T02:28:10;100879.06;;;8.18;100.00
46836;BME280;32573;51.290;6.926;2023-05-24T02:30:39;100878.78;;;8.12;100.00
46836;BME280;32573;51.290;6.926;2023-05-24T02:33:12;100878.66;;;8.09;100.00
46836;BME280;32573;51.290;6.926;2023-05-24T02:35:41;100883.69;;;8.06;100.00
46836;BME280;32573;51.290;6.926;2023-05-24T02:38:09;100877.44;;;8.02;100.00
46836;BME280;32573;51.290;6.926;2023-05-24T02:40:38;100878.19;;;7.99;100.00
46836;BME280;32573;51.290;6.926;2023-05-24T02:43:11;100878.03;;;7.96;100.00
46836;BME280;32573;51.290;6.926;2023-05-24T02:45:40;100884.88;;;7.94;100.00
46836;BME280;32573;51.290;6.926;2023-05-24T02:48:08;100886.41;;;7.91;100.00
46836;BME280;32573;51.290;6.926;2023-05-24T02:50:38;100879.34;;;7.88;100.00
46836;BME280;32573;51.290;6.926;2023-05-24T02:53:07;100881.72;;;7.84;100.00
46836;BME280;32573;51.290;6.926;2023-05-24T02:55:36;100888.50;;;7.80;100.00
46836;BME280;32573;51.290;6.926;2023-05-24T02:58:04;100885.75;;;7.77;100.00
46836;BME280;32573;51.290;6.926;2023-05-24T03:00:35;100901.03;;;7.71;100.00
46836;BME280;32573;51.290;6.926;2023-05-24T03:03:05;100893.03;;;7.66;100.00
46836;BME280;32573;51.290;6.926;2023-05-24T03:05:33;100895.38;;;7.62;100.00
46836;BME280;32573;51.290;6.926;2023-05-24T03:08:04;100889.84;;;7.55;100.00
46836;BME280;32573;51.290;6.926;2023-05-24T03:10:33;100884.47;;;7.52;100.00
46836;BME280;32573;51.290;6.926;2023-05-24T03:13:01;100875.53;;;7.47;100.00
46836;BME280;32573;51.290;6.926;2023-05-24T03:15:30;100881.38;;;7.43;100.00
46836;BME280;32573;51.290;6.926;2023-05-24T03:17:59;100882.94;;;7.40;100.00
46836;BME280;32573;51.290;6.926;2023-05-24T03:20:27;100886.13;;;7.34;100.00
46836;BME280;32573;51.290;6.926;2023-05-24T03:22:56;100885.16;;;7.32;100.00
46836;BME280;32573;51.290;6.926;2023-05-24T03:25:26;100884.19;;;7.30;100.00
46836;BME280;32573;51.290;6.926;2023-05-24T03:27:54;100877.97;;;7.28;100.00
46836;BME280;32573;51.290;6.926;2023-05-24T03:30:23;100877.84;;;7.25;100.00
46836;BME280;32573;51.290;6.926;2023-05-24T03:32:54;100877.59;;;7.20;100.00
46836;BME280;32573;51.290;6.926;2023-05-24T03:35:23;100897.44;;;7.18;100.00
46836;BME280;32573;51.290;6.926;2023-05-24T03:37:51;100892.91;;;7.14;100.00
46836;BME280;32573;51.290;6.926;2023-05-24T03:40:20;100896.22;;;7.11;100.00
46836;BME280;32573;51.290;6.926;2023-05-24T03:42:58;100897.84;;;7.09;100.00
46836;BME280;32573;51.290;6.926;2023-05-24T03:45:42;100893.38;;;7.07;100.00
46836;BME280;32573;51.290;6.926;2023-05-24T03:48:11;100895.00;;;7.05;100.00
46836;BME280;32573;51.290;6.926;2023-05-24T03:50:40;100898.31;;;7.02;100.00
46836;BME280;32573;51.290;6.926;2023-05-24T03:53:10;100897.44;;;7.02;100.00
46836;BME280;32573;51.290;6.926;2023-05-24T03:55:39;100893.03;;;7.01;100.00
46836;BME280;32573;51.290;6.926;2023-05-24T03:58:09;100897.19;;;6.97;100.00
46836;BME280;32573;51.290;6.926;2023-05-24T04:00:38;100897.97;;;6.96;100.00
46836;BME280;32573;51.290;6.926;2023-05-24T04:03:08;100888.41;;;6.95;100.00
46836;BME280;32573;51.290;6.926;2023-05-24T04:05:38;100895.22;;;6.93;100.00
46836;BME280;32573;51.290;6.926;2023-05-24T04:08:07;100896.84;;;6.91;100.00
46836;BME280;32573;51.290;6.926;2023-05-24T04:10:37;100901.97;;;6.89;100.00
46836;BME280;32573;51.290;6.926;2023-05-24T04:13:08;100900.25;;;6.90;100.00
46836;BME280;32573;51.290;6.926;2023-05-24T04:15:37;100901.09;;;6.89;100.00
46836;BME280;32573;51.290;6.926;2023-05-24T04:18:06;100907.25;;;6.91;100.00
46836;BME280;32573;51.290;6.926;2023-05-24T04:20:34;100911.66;;;6.92;100.00
46836;BME280;32573;51.290;6.926;2023-05-24T04:23:03;100911.56;;;6.90;100.00
46836;BME280;32573;51.290;6.926;2023-05-24T04:25:32;100917.66;;;6.91;100.00
46836;BME280;32573;51.290;6.926;2023-05-24T04:28:01;100914.09;;;6.89;100.00
46836;BME280;32573;51.290;6.926;2023-05-24T04:30:33;100919.31;;;6.89;100.00
46836;BME280;32573;51.290;6.926;2023-05-24T04:33:03;100919.31;;;6.89;100.00
46836;BME280;32573;51.290;6.926;2023-05-24T04:35:32;100918.38;;;6.88;100.00
46836;BME280;32573;51.290;6.926;2023-05-24T04:38:01;100921.06;;;6.90;100.00
46836;BME280;32573;51.290;6.926;2023-05-24T04:40:30;100918.56;;;6.91;100.00
46836;BME280;32573;51.290;6.926;2023-05-24T04:42:59;100918.63;;;6.93;100.00
46836;BME280;32573;51.290;6.926;2023-05-24T04:45:29;100927.44;;;6.95;100.00
46836;BME280;32573;51.290;6.926;2023-05-24T04:48:00;100922.31;;;6.97;100.00
46836;BME280;32573;51.290;6.926;2023-05-24T04:50:29;100924.09;;;6.98;100.00
46836;BME280;32573;51.290;6.926;2023-05-24T04:52:59;100923.38;;;7.00;100.00
46836;BME280;32573;51.290;6.926;2023-05-24T04:55:28;100927.84;;;7.03;100.00
46836;BME280;32573;51.290;6.926;2023-05-24T04:58:01;100933.31;;;7.07;100.00
46836;BME280;32573;51.290;6.926;2023-05-24T05:00:31;100935.34;;;7.13;100.00
46836;BME280;32573;51.290;6.926;2023-05-24T05:03:02;100934.84;;;7.20;100.00
46836;BME280;32573;51.290;6.926;2023-05-24T05:05:31;100940.47;;;7.28;100.00
46836;BME280;32573;51.290;6.926;2023-05-24T05:08:00;100948.69;;;7.35;100.00
46836;BME280;32573;51.290;6.926;2023-05-24T05:10:30;100951.69;;;7.43;100.00
46836;BME280;32573;51.290;6.926;2023-05-24T05:12:58;100949.50;;;7.51;100.00
46836;BME280;32573;51.290;6.926;2023-05-24T05:15:27;100952.50;;;7.59;100.00
46836;BME280;32573;51.290;6.926;2023-05-24T05:17:57;100954.63;;;7.66;100.00
46836;BME280;32573;51.290;6.926;2023-05-24T05:20:28;100950.53;;;7.71;100.00
46836;BME280;32573;51.290;6.926;2023-05-24T05:22:57;100952.59;;;7.76;100.00
46836;BME280;32573;51.290;6.926;2023-05-24T05:25:25;100948.56;;;7.83;100.00
46836;BME280;32573;51.290;6.926;2023-05-24T05:27:55;100948.09;;;7.90;100.00
46836;BME280;32573;51.290;6.926;2023-05-24T05:30:24;100940.59;;;7.96;100.00
46836;BME280;32573;51.290;6.926;2023-05-24T05:32:53;100939.25;;;8.05;100.00
46836;BME280;32573;51.290;6.926;2023-05-24T05:35:22;100949.19;;;8.12;100.00
46836;BME280;32573;51.290;6.926;2023-05-24T05:37:53;100940.69;;;8.16;100.00
46836;BME280;32573;51.290;6.926;2023-05-24T05:40:22;100943.75;;;8.25;100.00
46836;BME280;32573;51.290;6.926;2023-05-24T05:42:50;100948.47;;;8.32;100.00
46836;BME280;32573;51.290;6.926;2023-05-24T05:45:19;100954.97;;;8.40;100.00
46836;BME280;32573;51.290;6.926;2023-05-24T05:47:48;100940.63;;;8.49;100.00
46836;BME280;32573;51.290;6.926;2023-05-24T05:50:16;100945.47;;;8.59;100.00
46836;BME280;32573;51.290;6.926;2023-05-24T05:52:45;100945.09;;;8.69;100.00
46836;BME280;32573;51.290;6.926;2023-05-24T05:55:15;100956.88;;;8.79;100.00
46836;BME280;32573;51.290;6.926;2023-05-24T05:57:43;100949.53;;;8.90;100.00
46836;BME280;32573;51.290;6.926;2023-05-24T06:00:12;100943.03;;;8.99;100.00
46836;BME280;32573;51.290;6.926;2023-05-24T06:02:41;100932.94;;;9.07;100.00
46836;BME280;32573;51.290;6.926;2023-05-24T06:05:10;100931.44;;;9.12;100.00
46836;BME280;32573;51.290;6.926;2023-05-24T06:07:42;100928.19;;;9.18;100.00
46836;BME280;32573;51.290;6.926;2023-05-24T06:10:10;100927.66;;;9.25;100.00
46836;BME280;32573;51.290;6.926;2023-05-24T06:12:40;100925.34;;;9.31;100.00
46836;BME280;32573;51.290;6.926;2023-05-24T06:15:09;100927.34;;;9.37;100.00
46836;BME280;32573;51.290;6.926;2023-05-24T06:17:38;100931.84;;;9.41;100.00
46836;BME280;32573;51.290;6.926;2023-05-24T06:20:10;100935.72;;;9.49;100.00
46836;BME280;32573;51.290;6.926;2023-05-24T06:22:42;100946.56;;;9.58;100.00
46836;BME280;32573;51.290;6.926;2023-05-24T06:25:11;100944.38;;;9.67;100.00
46836;BME280;32573;51.290;6.926;2023-05-24T06:27:46;100942.16;;;9.77;100.00
46836;BME280;32573;51.290;6.926;2023-05-24T06:30:15;100938.22;;;9.86;100.00
46836;BME280;32573;51.290;6.926;2023-05-24T06:32:44;100943.72;;;9.92;100.00
46836;BME280;32573;51.290;6.926;2023-05-24T06:35:15;100951.88;;;10.00;100.00
46836;BME280;32573;51.290;6.926;2023-05-24T06:37:44;100945.13;;;10.05;100.00
46836;BME280;32573;51.290;6.926;2023-05-24T06:40:13;100944.44;;;10.09;100.00
46836;BME280;32573;51.290;6.926;2023-05-24T06:42:41;100948.91;;;10.12;100.00
46836;BME280;32573;51.290;6.926;2023-05-24T06:45:11;100946.22;;;10.10;100.00
46836;BME280;32573;51.290;6.926;2023-05-24T06:47:41;100955.88;;;10.11;100.00
46836;BME280;32573;51.290;6.926;2023-05-24T06:50:10;100950.69;;;10.13;100.00
46836;BME280;32573;51.290;6.926;2023-05-24T06:52:38;100952.53;;;10.15;100.00
46836;BME280;32573;51.290;6.926;2023-05-24T06:55:07;100959.69;;;10.20;100.00
46836;BME280;32573;51.290;6.926;2023-05-24T06:57:36;100961.63;;;10.24;100.00
46836;BME280;32573;51.290;6.926;2023-05-24T07:00:06;100962.63;;;10.27;100.00
46836;BME280;32573;51.290;6.926;2023-05-24T07:02:40;100951.63;;;10.34;100.00
46836;BME280;32573;51.290;6.926;2023-05-24T07:05:09;100958.94;;;10.43;100.00
46836;BME280;32573;51.290;6.926;2023-05-24T07:07:39;100952.34;;;10.51;100.00
46836;BME280;32573;51.290;6.926;2023-05-24T07:10:25;100961.50;;;10.63;100.00
46836;BME280;32573;51.290;6.926;2023-05-24T07:12:54;100954.03;;;10.72;100.00
46836;BME280;32573;51.290;6.926;2023-05-24T07:15:22;100958.69;;;10.79;100.00
46836;BME280;32573;51.290;6.926;2023-05-24T07:17:55;100961.63;;;10.88;100.00
46836;BME280;32573;51.290;6.926;2023-05-24T07:20:24;100960.25;;;10.96;100.00
46836;BME280;32573;51.290;6.926;2023-05-24T07:22:54;100969.28;;;11.05;100.00
46836;BME280;32573;51.290;6.926;2023-05-24T07:25:24;100964.41;;;11.14;100.00
46836;BME280;32573;51.290;6.926;2023-05-24T07:27:52;100967.34;;;11.23;100.00
46836;BME280;32573;51.290;6.926;2023-05-24T07:30:21;100967.69;;;11.31;100.00
46836;BME280;32573;51.290;6.926;2023-05-24T07:32:59;100955.75;;;11.39;100.00
46836;BME280;32573;51.290;6.926;2023-05-24T07:35:29;100961.28;;;11.47;100.00
46836;BME280;32573;51.290;6.926;2023-05-24T07:37:59;100959.72;;;11.52;100.00
46836;BME280;32573;51.290;6.926;2023-05-24T07:40:28;100959.88;;;11.56;100.00
46836;BME280;32573;51.290;6.926;2023-05-24T07:42:57;100958.25;;;11.60;100.00
46836;BME280;32573;51.290;6.926;2023-05-24T07:45:25;100950.56;;;11.64;100.00
46836;BME280;32573;51.290;6.926;2023-05-24T07:47:54;100949.84;;;11.69;100.00
46836;BME280;32573;51.290;6.926;2023-05-24T07:50:24;100950.91;;;11.74;100.00
46836;BME280;32573;51.290;6.926;2023-05-24T07:52:53;100947.53;;;11.78;100.00
46836;BME280;32573;51.290;6.926;2023-05-24T07:55:22;100950.31;;;11.82;100.00
46836;BME280;32573;51.290;6.926;2023-05-24T07:57:50;100947.78;;;11.85;100.00
46836;BME280;32573;51.290;6.926;2023-05-24T08:00:19;100948.00;;;11.90;100.00
46836;BME280;32573;51.290;6.926;2023-05-24T08:02:49;100952.47;;;11.93;100.00
46836;BME280;32573;51.290;6.926;2023-05-24T08:05:18;100957.00;;;11.97;100.00
46836;BME280;32573;51.290;6.926;2023-05-24T08:07:48;100957.09;;;12.00;100.00
46836;BME280;32573;51.290;6.926;2023-05-24T08:10:17;100956.38;;;12.04;100.00
46836;BME280;32573;51.290;6.926;2023-05-24T08:12:45;100955.63;;;12.08;100.00
46836;BME280;32573;51.290;6.926;2023-05-24T08:15:16;100954.00;;;12.12;100.00
46836;BME280;32573;51.290;6.926;2023-05-24T08:17:45;100952.34;;;12.14;100.00
46836;BME280;32573;51.290;6.926;2023-05-24T08:20:14;100956.03;;;12.20;100.00
46836;BME280;32573;51.290;6.926;2023-05-24T08:22:44;100950.91;;;12.23;100.00
46836;BME280;32573;51.290;6.926;2023-05-24T08:25:15;100964.13;;;12.26;100.00
46836;BME280;32573;51.290;6.926;2023-05-24T08:27:44;100966.78;;;12.28;100.00
46836;BME280;32573;51.290;6.926;2023-05-24T08:30:13;100960.78;;;12.30;100.00
46836;BME280;32573;51.290;6.926;2023-05-24T08:32:41;100963.53;;;12.35;100.00
46836;BME280;32573;51.290;6.926;2023-05-24T08:35:10;100961.06;;;12.40;100.00
46836;BME280;32573;51.290;6.926;2023-05-24T08:37:48;100959.50;;;12.45;100.00
46836;BME280;32573;51.290;6.926;2023-05-24T08:40:18;100960.53;;;12.50;100.00
46836;BME280;32573;51.290;6.926;2023-05-24T08:42:51;100959.91;;;12.57;100.00
46836;BME280;32573;51.290;6.926;2023-05-24T08:45:20;100952.97;;;12.59;100.00
46836;BME280;32573;51.290;6.926;2023-05-24T08:47:49;100948.75;;;12.64;100.00
46836;BME280;32573;51.290;6.926;2023-05-24T08:50:19;100952.34;;;12.68;100.00
46836;BME280;32573;51.290;6.926;2023-05-24T08:52:47;100945.41;;;12.68;100.00
46836;BME280;32573;51.290;6.926;2023-05-24T08:55:18;100945.41;;;12.68;100.00
46836;BME280;32573;51.290;6.926;2023-05-24T08:57:47;100938.34;;;12.67;100.00
46836;BME280;32573;51.290;6.926;2023-05-24T09:00:17;100948.13;;;12.71;100.00
46836;BME280;32573;51.290;6.926;2023-05-24T09:02:47;100936.91;;;12.77;100.00
46836;BME280;32573;51.290;6.926;2023-05-24T09:05:17;100943.25;;;12.84;100.00
46836;BME280;32573;51.290;6.926;2023-05-24T09:07:48;100931.28;;;12.93;100.00
46836;BME280;32573;51.290;6.926;2023-05-24T09:10:19;100942.84;;;13.00;100.00
46836;BME280;32573;51.290;6.926;2023-05-24T09:12:53;100937.81;;;13.06;100.00
46836;BME280;32573;51.290;6.926;2023-05-24T09:15:22;100936.28;;;13.13;100.00
46836;BME280;32573;51.290;6.926;2023-05-24T09:17:51;100930.28;;;13.19;100.00
46836;BME280;32573;51.290;6.926;2023-05-24T09:20:20;100932.25;;;13.26;100.00
46836;BME280;32573;51.290;6.926;2023-05-24T09:22:51;100929.00;;;13.33;100.00
46836;BME280;32573;51.290;6.926;2023-05-24T09:25:21;100941.44;;;13.40;100.00
46836;BME280;32573;51.290;6.926;2023-05-24T09:27:50;100937.22;;;13.45;100.00
46836;BME280;32573;51.290;6.926;2023-05-24T09:30:19;100934.78;;;13.51;100.00
46836;BME280;32573;51.290;6.926;2023-05-24T09:32:58;100938.50;;;13.59;100.00
46836;BME280;32573;51.290;6.926;2023-05-24T09:35:27;100937.84;;;13.67;100.00
46836;BME280;32573;51.290;6.926;2023-05-24T09:37:57;100933.59;;;13.72;100.00
46836;BME280;32573;51.290;6.926;2023-05-24T09:40:29;100932.84;;;13.76;100.00
46836;BME280;32573;51.290;6.926;2023-05-24T09:43:08;100927.78;;;13.84;100.00
46836;BME280;32573;51.290;6.926;2023-05-24T09:45:38;100928.03;;;13.93;100.00
46836;BME280;32573;51.290;6.926;2023-05-24T09:48:10;100930.75;;;13.97;100.00
46836;BME280;32573;51.290;6.926;2023-05-24T09:50:39;100932.63;;;14.01;100.00
46836;BME280;32573;51.290;6.926;2023-05-24T09:53:08;100926.56;;;14.04;100.00
46836;BME280;32573;51.290;6.926;2023-05-24T09:55:39;100924.06;;;14.09;100.00
46836;BME280;32573;51.290;6.926;2023-05-24T09:58:08;100924.13;;;14.12;100.00
46836;BME280;32573;51.290;6.926;2023-05-24T10:00:40;100922.34;;;14.11;100.00
46836;BME280;32573;51.290;6.926;2023-05-24T10:03:10;100921.53;;;14.13;100.00
46836;BME280;32573;51.290;6.926;2023-05-24T10:05:41;100920.88;;;14.22;100.00
46836;BME280;32573;51.290;6.926;2023-05-24T10:08:12;100916.72;;;14.32;100.00
46836;BME280;32573;51.290;6.926;2023-05-24T10:10:43;100921.47;;;14.46;100.00
46836;BME280;32573;51.290;6.926;2023-05-24T10:13:13;100914.84;;;14.61;100.00
46836;BME280;32573;51.290;6.926;2023-05-24T10:15:44;100919.31;;;14.65;100.00
46836;BME280;32573;51.290;6.926;2023-05-24T10:18:13;100922.03;;;14.68;100.00
46836;BME280;32573;51.290;6.926;2023-05-24T10:20:42;100915.97;;;14.72;100.00
46836;BME280;32573;51.290;6.926;2023-05-24T10:23:19;100923.16;;;14.78;100.00
46836;BME280;32573;51.290;6.926;2023-05-24T10:25:53;100920.53;;;14.79;100.00
46836;BME280;32573;51.290;6.926;2023-05-24T10:28:24;100919.59;;;14.77;100.00
46836;BME280;32573;51.290;6.926;2023-05-24T10:31:02;100923.91;;;14.74;100.00
46836;BME280;32573;51.290;6.926;2023-05-24T10:33:35;100928.22;;;14.70;100.00
46836;BME280;32573;51.290;6.926;2023-05-24T10:36:06;100917.66;;;14.69;100.00
46836;BME280;32573;51.290;6.926;2023-05-24T10:38:37;100921.19;;;14.69;100.00
46836;BME280;32573;51.290;6.926;2023-05-24T10:41:08;100917.66;;;14.69;100.00
46836;BME280;32573;51.290;6.926;2023-05-24T10:43:37;100930.78;;;14.67;100.00
46836;BME280;32573;51.290;6.926;2023-05-24T10:46:08;100920.31;;;14.70;100.00
46836;BME280;32573;51.290;6.926;2023-05-24T10:48:38;100918.75;;;14.78;100.00
46836;BME280;32573;51.290;6.926;2023-05-24T10:51:32;100916.25;;;14.84;100.00
46836;BME280;32573;51.290;6.926;2023-05-24T10:54:12;100908.50;;;14.91;100.00
46836;BME280;32573;51.290;6.926;2023-05-24T10:56:46;100909.56;;;14.99;100.00
46836;BME280;32573;51.290;6.926;2023-05-24T10:59:29;100908.94;;;15.12;100.00
46836;BME280;32573;51.290;6.926;2023-05-24T11:02:02;100913.53;;;15.21;100.00
46836;BME280;32573;51.290;6.926;2023-05-24T11:04:35;100909.16;;;15.21;100.00
46836;BME280;32573;51.290;6.926;2023-05-24T11:07:06;100912.56;;;15.17;100.00
46836;BME280;32573;51.290;6.926;2023-05-24T11:09:42;100911.53;;;15.09;100.00
46836;BME280;32573;51.290;6.926;2023-05-24T11:12:15;100914.94;;;15.03;100.00
46836;BME280;32573;51.290;6.926;2023-05-24T11:14:49;100915.69;;;14.98;100.00
46836;BME280;32573;51.290;6.926;2023-05-24T11:17:20;100914.72;;;14.94;100.00
46836;BME280;32573;51.290;6.926;2023-05-24T11:19:52;100920.81;;;14.92;100.00
46836;BME280;32573;51.290;6.926;2023-05-24T11:22:23;100916.34;;;14.89;100.00
46836;BME280;32573;51.290;6.926;2023-05-24T11:24:56;100918.94;;;14.87;100.00
46836;BME280;32573;51.290;6.926;2023-05-24T11:27:33;100913.63;;;14.84;100.00
46836;BME280;32573;51.290;6.926;2023-05-24T11:30:03;100917.06;;;14.80;100.00
46836;BME280;32573;51.290;6.926;2023-05-24T11:32:34;100916.06;;;14.75;100.00
46836;BME280;32573;51.290;6.926;2023-05-24T11:35:09;100912.41;;;14.70;100.00
46836;BME280;32573;51.290;6.926;2023-05-24T11:37:39;100918.53;;;14.69;100.00
46836;BME280;32573;51.290;6.926;2023-05-24T11:40:13;100916.78;;;14.68;100.00
46836;BME280;32573;51.290;6.926;2023-05-24T11:42:45;100921.94;;;14.65;100.00
46836;BME280;32573;51.290;6.926;2023-05-24T11:45:16;100916.59;;;14.62;100.00
46836;BME280;32573;51.290;6.926;2023-05-24T11:47:50;100920.94;;;14.58;100.00
46836;BME280;32573;51.290;6.926;2023-05-24T11:50:23;100916.53;;;14.59;100.00
46836;BME280;32573;51.290;6.926;2023-05-24T11:53:02;100915.69;;;14.60;100.00
46836;BME280;32573;51.290;6.926;2023-05-24T11:55:31;100919.22;;;14.60;100.00
46836;BME280;32573;51.290;6.926;2023-05-24T11:58:04;100916.66;;;14.63;100.00
46836;BME280;32573;51.290;6.926;2023-05-24T12:00:35;100913.28;;;14.69;100.00
46836;BME280;32573;51.290;6.926;2023-05-24T12:03:07;100913.44;;;14.77;100.00
46836;BME280;32573;51.290;6.926;2023-05-24T12:05:36;100911.84;;;14.83;100.00
46836;BME280;32573;51.290;6.926;2023-05-24T12:08:10;100905.94;;;14.94;100.00
46836;BME280;32573;51.290;6.926;2023-05-24T12:10:40;100907.03;;;15.05;100.00
46836;BME280;32573;51.290;6.926;2023-05-24T12:13:21;100902.03;;;15.17;100.00
46836;BME280;32573;51.290;6.926;2023-05-24T12:15:52;100902.22;;;15.26;100.00
46836;BME280;32573;51.290;6.926;2023-05-24T12:18:24;100905.06;;;15.37;100.00
46836;BME280;32573;51.290;6.926;2023-05-24T12:20:53;100911.44;;;15.47;100.00
46836;BME280;32573;51.290;6.926;2023-05-24T12:23:24;100903.66;;;15.53;100.00
46836;BME280;32573;51.290;6.926;2023-05-24T12:25:57;100901.13;;;15.59;100.00
46836;BME280;32573;51.290;6.926;2023-05-24T12:28:33;100896.88;;;15.67;100.00
46836;BME280;32573;51.290;6.926;2023-05-24T12:31:06;100899.72;;;15.77;100.00
46836;BME280;32573;51.290;6.926;2023-05-24T12:33:37;100899.91;;;15.86;100.00
46836;BME280;32573;51.290;6.926;2023-05-24T12:36:06;100893.00;;;15.94;100.00
46836;BME280;32573;51.290;6.926;2023-05-24T12:38:38;100894.00;;;16.01;100.00
46836;BME280;32573;51.290;6.926;2023-05-24T12:41:09;100893.22;;;16.06;100.00
46836;BME280;32573;51.290;6.926;2023-05-24T12:43:42;100895.06;;;16.10;100.00
46836;BME280;32573;51.290;6.926;2023-05-24T12:46:11;100888.97;;;16.16;100.00
46836;BME280;32573;51.290;6.926;2023-05-24T12:48:40;100885.63;;;16.26;100.00
46836;BME280;32573;51.290;6.926;2023-05-24T12:51:09;100892.88;;;16.38;100.00
46836;BME280;32573;51.290;6.926;2023-05-24T12:53:38;100893.97;;;16.52;100.00
46836;BME280;32573;51.290;6.926;2023-05-24T12:56:07;100890.63;;;16.63;100.00
46836;BME280;32573;51.290;6.926;2023-05-24T12:58:36;100885.38;;;16.67;100.00
46836;BME280;32573;51.290;6.926;2023-05-24T13:01:06;100894.25;;;16.71;100.00
46836;BME280;32573;51.290;6.926;2023-05-24T13:03:34;100897.75;;;16.70;100.00
46836;BME280;32573;51.290;6.926;2023-05-24T13:06:03;100894.22;;;16.68;100.00